Time;durP1;ratioP1;P1;durP2;ratioP2;P2;SDS_P1;SDS_P2;PMS_P1;PMS_P2;Temp;Humidity;BMP_temperature;BMP_pressure;BME280_temperature;BME280_humidity;BME280_pressure;Samples;Min_cycle;Max_cycle;Signal;HPM_P1;HPM_P2
2023/01/04 00:01:04;;;;;;;10.43;4.87;;;3.50;99.90;;;;;;5038350;28;20456;-61
2023/01/04 00:03:33;;;;;;;6.70;4.30;;;3.50;99.90;;;;;;5020536;28;20190;-59
2023/01/04 00:06:00;;;;;;;36.37;6.17;;;3.50;99.90;;;;;;5020194;28;20462;-59
2023/01/04 00:08:27;;;;;;;10.17;4.60;;;3.50;99.90;;;;;;5021169;28;20978;-58
2023/01/04 00:10:52;;;;;;;10.03;4.93;;;3.50;99.90;;;;;;5021197;28;20471;-59
2023/01/04 00:13:18;;;;;;;20.80;7.37;;;3.50;99.90;;;;;;5022558;28;20439;-58
2023/01/04 00:15:44;;;;;;;15.40;6.50;;;3.50;99.90;;;;;;5023873;28;20187;-58
2023/01/04 00:18:09;;;;;;;13.80;6.47;;;3.50;99.90;;;;;;5022627;28;20378;-59
2023/01/04 00:20:35;;;;;;;15.70;4.67;;;3.50;99.90;;;;;;5021198;28;20183;-59
2023/01/04 00:23:00;;;;;;;7.27;4.37;;;3.50;99.90;;;;;;5024378;28;20183;-58
2023/01/04 00:25:26;;;;;;;13.63;5.20;;;3.50;99.90;;;;;;5022653;28;20759;-59
2023/01/04 00:27:52;;;;;;;16.00;5.40;;;3.50;99.90;;;;;;5025444;28;20203;-59
2023/01/04 00:30:17;;;;;;;17.03;6.33;;;3.50;99.90;;;;;;5022978;28;20696;-59
2023/01/04 00:32:44;;;;;;;17.03;6.47;;;3.50;99.90;;;;;;5020995;28;20215;-58
2023/01/04 00:35:10;;;;;;;11.30;5.13;;;3.60;99.90;;;;;;5019966;28;20186;-59
2023/01/04 00:37:36;;;;;;;11.83;6.20;;;3.60;99.90;;;;;;5018948;28;20445;-59
2023/01/04 00:40:02;;;;;;;23.10;5.13;;;3.60;99.90;;;;;;5020703;28;21111;-60
2023/01/04 00:42:28;;;;;;;11.80;5.53;;;3.60;99.90;;;;;;5025843;28;20215;-59
2023/01/04 00:44:53;;;;;;;10.60;5.60;;;3.70;99.90;;;;;;5022106;28;20492;-58
2023/01/04 00:47:19;;;;;;;17.03;6.67;;;3.70;99.90;;;;;;5020437;28;20917;-59
2023/01/04 00:49:44;;;;;;;19.80;6.20;;;3.70;99.90;;;;;;5021240;28;20651;-58
2023/01/04 00:52:10;;;;;;;16.73;5.73;;;3.70;99.90;;;;;;5019758;28;20696;-59
2023/01/04 00:54:35;;;;;;;13.40;6.30;;;3.80;99.90;;;;;;5017531;28;20184;-59
2023/01/04 00:57:01;;;;;;;16.97;5.80;;;3.80;99.90;;;;;;5026977;28;20192;-61
2023/01/04 00:59:27;;;;;;;11.07;5.53;;;3.80;99.90;;;;;;5027675;28;20675;-59
2023/01/04 01:01:53;;;;;;;10.80;5.50;;;3.90;99.90;;;;;;5023145;28;20184;-59
2023/01/04 01:04:21;;;;;;;16.40;6.63;;;3.90;99.90;;;;;;5024090;28;20928;-59
2023/01/04 01:06:48;;;;;;;22.30;5.60;;;3.90;99.90;;;;;;5016920;28;20199;-60
2023/01/04 01:09:14;;;;;;;22.93;6.50;;;3.90;99.90;;;;;;5020936;28;20430;-59
2023/01/04 01:11:40;;;;;;;24.47;6.47;;;4.00;99.90;;;;;;5024305;28;20474;-59
2023/01/04 01:14:07;;;;;;;22.53;6.33;;;4.00;99.90;;;;;;5021733;28;20435;-58
2023/01/04 01:16:33;;;;;;;13.20;6.70;;;4.00;99.90;;;;;;5024650;28;20451;-58
2023/01/04 01:18:59;;;;;;;13.03;6.67;;;4.00;99.90;;;;;;5017632;28;20434;-58
2023/01/04 01:21:27;;;;;;;14.63;6.00;;;4.00;99.90;;;;;;5028136;28;20954;-59
2023/01/04 01:23:54;;;;;;;12.27;6.70;;;4.00;99.90;;;;;;5031175;28;20719;-58
2023/01/04 01:26:22;;;;;;;17.90;6.23;;;4.00;99.90;;;;;;5024916;28;20453;-59
2023/01/04 01:28:48;;;;;;;15.80;6.53;;;4.00;99.90;;;;;;5022606;28;20522;-59
2023/01/04 01:31:17;;;;;;;17.13;7.10;;;4.00;99.90;;;;;;5022378;28;20532;-59
2023/01/04 01:33:45;;;;;;;24.00;6.87;;;4.10;99.90;;;;;;5023326;28;20980;-59
2023/01/04 01:36:12;;;;;;;25.03;7.33;;;4.10;99.90;;;;;;5020453;28;20459;-59
2023/01/04 01:38:39;;;;;;;17.10;6.70;;;4.10;99.90;;;;;;5024604;28;20426;-59
2023/01/04 01:41:07;;;;;;;15.03;6.77;;;4.10;99.90;;;;;;5026504;28;20822;-59
2023/01/04 01:43:56;;;;;;;17.70;7.17;;;4.10;99.90;;;;;;5027751;28;20577;-61
2023/01/04 01:46:39;;;;;;;20.37;7.27;;;4.10;99.90;;;;;;5027736;28;20505;-58
2023/01/04 01:49:28;;;;;;;16.47;6.40;;;4.10;99.90;;;;;;5016898;28;20445;-58
2023/01/04 01:51:56;;;;;;;22.60;8.17;;;4.10;99.90;;;;;;5018489;28;20446;-59
2023/01/04 01:54:27;;;;;;;18.00;8.53;;;4.10;99.90;;;;;;5018027;28;20435;-58
2023/01/04 01:56:56;;;;;;;17.47;8.43;;;4.10;99.90;;;;;;5021851;28;20965;-59
2023/01/04 01:59:22;;;;;;;14.63;7.57;;;4.20;99.90;;;;;;5021885;28;20522;-58
2023/01/04 02:01:48;;;;;;;16.70;7.20;;;4.20;99.90;;;;;;5015259;28;20430;-59
2023/01/04 02:04:15;;;;;;;16.93;7.00;;;4.20;99.90;;;;;;5020182;28;20424;-60
2023/01/04 02:06:48;;;;;;;19.43;8.47;;;4.20;99.90;;;;;;5023071;28;20591;-58
2023/01/04 02:09:14;;;;;;;13.00;6.37;;;4.30;99.90;;;;;;5013922;28;20962;-59
2023/01/04 02:11:40;;;;;;;16.73;6.87;;;4.30;99.90;;;;;;5021172;28;20470;-59
2023/01/04 02:14:26;;;;;;;16.47;7.10;;;4.30;99.90;;;;;;5014358;28;20433;-59
2023/01/04 02:17:14;;;;;;;13.90;6.13;;;4.30;99.90;;;;;;5022574;28;20234;-59
2023/01/04 02:20:17;;;;;;;12.50;6.10;;;4.30;99.90;;;;;;5017397;28;20454;-59
2023/01/04 02:23:01;;;;;;;16.00;7.00;;;4.40;99.90;;;;;;5030980;28;20445;-59
2023/01/04 02:25:51;;;;;;;20.70;8.00;;;4.40;99.90;;;;;;5021177;28;20426;-59
2023/01/04 02:28:38;;;;;;;16.57;6.70;;;4.40;99.90;;;;;;5013037;28;20436;-59
2023/01/04 02:31:25;;;;;;;14.17;6.57;;;4.40;99.90;;;;;;5024624;28;20482;-59
2023/01/04 02:34:23;;;;;;;14.37;7.57;;;4.50;99.90;;;;;;5028539;28;20410;-59
2023/01/04 02:37:00;;;;;;;14.53;7.03;;;4.50;99.90;;;;;;5019125;28;20455;-59
2023/01/04 02:39:34;;;;;;;13.20;6.73;;;4.50;99.90;;;;;;5018538;28;20485;-59
2023/01/04 02:42:11;;;;;;;11.17;6.20;;;4.50;99.90;;;;;;5016318;28;20427;-58
2023/01/04 02:45:03;;;;;;;14.67;6.27;;;4.60;99.90;;;;;;5020503;28;20520;-58
2023/01/04 02:50:30;;;;;;;13.17;6.43;;;4.60;99.90;;;;;;5021455;28;20523;-59
2023/01/04 02:53:08;;;;;;;13.70;7.30;;;4.60;99.90;;;;;;5022184;28;20522;-59
2023/01/04 02:55:46;;;;;;;14.43;7.87;;;4.60;99.90;;;;;;5023940;28;20430;-58
2023/01/04 02:58:35;;;;;;;13.57;7.70;;;4.70;99.90;;;;;;5016317;28;20433;-60
2023/01/04 03:07:19;;;;;;;17.87;7.20;;;4.80;99.90;;;;;;5024385;28;20496;-58
2023/01/04 03:09:49;;;;;;;14.20;7.00;;;4.80;99.90;;;;;;5019956;28;20558;-59
2023/01/04 03:12:32;;;;;;;17.00;8.17;;;4.80;99.90;;;;;;5026306;28;20458;-59
2023/01/04 03:15:22;;;;;;;14.33;7.50;;;4.80;99.90;;;;;;5023289;28;20908;-59
2023/01/04 03:17:59;;;;;;;15.40;8.27;;;4.80;99.90;;;;;;5026205;28;20447;-58
2023/01/04 03:20:29;;;;;;;12.60;6.90;;;4.80;99.90;;;;;;5016371;28;20516;-59
2023/01/04 03:37:06;;;;;;;12.67;6.40;;;4.90;99.90;;;;;;5013067;28;20509;-59
2023/01/04 03:48:33;;;;;;;11.07;5.60;;;4.90;99.90;;;;;;5019810;28;20445;-59
2023/01/04 03:51:21;;;;;;;11.90;5.40;;;5.00;99.90;;;;;;5023354;28;20835;-59
2023/01/04 03:54:05;;;;;;;10.73;5.97;;;5.00;99.90;;;;;;5011095;28;20800;-58
2023/01/04 03:56:34;;;;;;;8.63;5.20;;;5.00;99.90;;;;;;5014361;28;20451;-59
2023/01/04 03:59:00;;;;;;;13.07;6.07;;;5.00;99.90;;;;;;5021609;28;20434;-59
2023/01/04 04:01:27;;;;;;;13.47;6.27;;;5.00;99.90;;;;;;5010676;28;20420;-59
2023/01/04 04:09:22;;;;;;;13.03;5.73;;;5.00;99.90;;;;;;5022344;28;20488;-59
2023/01/04 04:11:48;;;;;;;10.33;5.67;;;5.00;99.90;;;;;;5026689;28;20466;-58
2023/01/04 04:14:14;;;;;;;9.43;5.43;;;5.00;99.90;;;;;;5023893;28;20188;-60
2023/01/04 04:16:40;;;;;;;12.03;6.10;;;5.00;99.90;;;;;;5016428;28;20193;-59
2023/01/04 04:19:05;;;;;;;12.23;5.97;;;5.00;99.90;;;;;;5018231;28;20661;-59
2023/01/04 04:21:31;;;;;;;10.27;5.57;;;5.00;99.90;;;;;;5012085;28;20688;-60
2023/01/04 04:23:57;;;;;;;12.10;5.73;;;5.00;99.90;;;;;;5026007;28;20176;-60
2023/01/04 04:26:23;;;;;;;12.47;5.73;;;5.00;99.90;;;;;;5028606;28;20232;-59
2023/01/04 04:28:49;;;;;;;10.17;5.90;;;5.00;99.90;;;;;;5029007;28;20668;-59
2023/01/04 04:31:14;;;;;;;10.20;5.70;;;5.00;99.90;;;;;;5017948;28;20477;-59
2023/01/04 04:33:40;;;;;;;11.00;6.13;;;5.10;99.90;;;;;;5020217;28;21088;-58
2023/01/04 04:36:07;;;;;;;8.23;5.20;;;5.10;99.90;;;;;;5026398;28;20208;-60
2023/01/04 04:38:34;;;;;;;9.63;5.27;;;5.10;99.90;;;;;;5019053;28;20181;-59
2023/01/04 04:43:54;;;;;;;8.07;4.50;;;5.10;99.90;;;;;;5023559;28;20444;-59
2023/01/04 04:46:20;;;;;;;10.00;5.27;;;5.10;99.90;;;;;;5023045;28;20573;-58
2023/01/04 04:48:45;;;;;;;11.80;5.90;;;5.10;99.90;;;;;;5017130;28;20372;-59
2023/01/04 04:51:11;;;;;;;7.70;4.53;;;5.10;99.90;;;;;;5025791;28;21050;-59
2023/01/04 04:53:37;;;;;;;9.33;5.07;;;5.10;99.90;;;;;;5027101;28;20286;-58
2023/01/04 04:56:02;;;;;;;7.80;5.37;;;5.10;99.90;;;;;;5026746;28;20211;-58
2023/01/04 04:58:28;;;;;;;8.87;4.80;;;5.10;99.90;;;;;;5025082;28;20237;-59
2023/01/04 05:00:54;;;;;;;7.73;4.93;;;5.10;99.90;;;;;;5026299;28;20191;-57
2023/01/04 05:03:19;;;;;;;8.57;5.37;;;5.10;99.90;;;;;;5024959;28;20191;-60
2023/01/04 05:05:45;;;;;;;9.83;5.30;;;5.10;99.90;;;;;;5018924;28;20183;-57
2023/01/04 05:08:10;;;;;;;8.13;4.87;;;5.10;99.90;;;;;;5003299;28;21071;-59
2023/01/04 05:10:37;;;;;;;9.10;5.13;;;5.10;99.90;;;;;;5007962;28;20258;-57
2023/01/04 05:13:04;;;;;;;11.47;5.73;;;5.10;99.90;;;;;;5022609;28;20331;-58
2023/01/04 05:15:43;;;;;;;9.80;5.10;;;5.10;99.90;;;;;;5017861;28;20439;-58
2023/01/04 05:18:10;;;;;;;7.40;4.67;;;5.10;99.90;;;;;;5015904;28;20434;-60
2023/01/04 05:20:37;;;;;;;7.93;5.03;;;5.10;99.90;;;;;;5020812;28;20809;-59
2023/01/04 05:23:03;;;;;;;10.83;5.70;;;5.10;99.90;;;;;;5017775;28;20974;-59
2023/01/04 05:25:29;;;;;;;8.50;4.57;;;5.10;99.90;;;;;;5023299;28;20450;-60
2023/01/04 05:27:55;;;;;;;11.73;5.43;;;5.10;99.90;;;;;;5022831;28;20478;-59
2023/01/04 05:33:05;;;;;;;10.13;5.90;;;5.10;99.90;;;;;;5021588;28;20210;-59
2023/01/04 05:35:31;;;;;;;10.30;5.90;;;5.10;99.90;;;;;;5015892;28;20467;-60
2023/01/04 05:37:57;;;;;;;8.63;5.00;;;5.20;99.90;;;;;;5023778;28;20529;-59
2023/01/04 05:40:23;;;;;;;9.17;5.97;;;5.20;99.90;;;;;;5015663;28;20242;-59
2023/01/04 05:42:49;;;;;;;11.20;6.40;;;5.20;99.90;;;;;;5020801;28;20197;-59
2023/01/04 05:45:16;;;;;;;9.27;5.50;;;5.20;99.90;;;;;;5017217;28;20447;-59
2023/01/04 05:47:42;;;;;;;11.30;5.40;;;5.20;99.90;;;;;;5016432;28;20223;-55
2023/01/04 05:50:08;;;;;;;9.80;5.40;;;5.20;99.90;;;;;;5023831;28;20462;-58
2023/01/04 05:52:35;;;;;;;8.63;5.20;;;5.20;99.90;;;;;;5015950;28;20179;-58
2023/01/04 05:55:01;;;;;;;9.60;5.83;;;5.20;99.90;;;;;;5025239;28;20465;-56
2023/01/04 05:57:26;;;;;;;9.20;5.13;;;5.20;99.90;;;;;;5014520;28;20593;-60
2023/01/04 05:59:52;;;;;;;6.67;4.53;;;5.20;99.90;;;;;;5015602;28;20955;-60
2023/01/04 06:02:29;;;;;;;9.20;4.90;;;5.20;99.90;;;;;;5021894;28;20198;-60
2023/01/04 06:04:55;;;;;;;6.97;4.40;;;5.20;99.90;;;;;;5013879;28;20176;-60
2023/01/04 06:07:21;;;;;;;9.93;5.70;;;5.20;99.90;;;;;;5021897;28;20434;-60
2023/01/04 06:09:46;;;;;;;8.13;5.70;;;5.20;99.90;;;;;;5027154;28;20427;-60
2023/01/04 06:12:12;;;;;;;10.37;5.83;;;5.20;99.90;;;;;;5019981;28;20669;-60
2023/01/04 06:14:39;;;;;;;8.30;5.30;;;5.20;99.90;;;;;;5018528;28;20187;-60
2023/01/04 06:17:04;;;;;;;7.53;4.70;;;5.20;99.90;;;;;;5028775;28;20453;-60
2023/01/04 06:19:31;;;;;;;8.80;5.17;;;5.20;99.90;;;;;;5020942;28;20434;-60
2023/01/04 06:21:57;;;;;;;10.47;5.50;;;5.20;99.90;;;;;;5028219;28;20183;-60
2023/01/04 06:24:22;;;;;;;10.87;5.17;;;5.20;99.90;;;;;;5027584;28;20427;-60
2023/01/04 06:26:48;;;;;;;9.00;5.50;;;5.20;99.90;;;;;;5037814;28;20455;-60
2023/01/04 06:29:14;;;;;;;7.90;4.70;;;5.20;99.90;;;;;;5020884;28;20624;-60
2023/01/04 06:31:40;;;;;;;8.80;4.90;;;5.20;99.90;;;;;;5010876;28;20264;-60
2023/01/04 06:34:05;;;;;;;9.83;5.50;;;5.20;99.90;;;;;;5014058;28;20556;-60
2023/01/04 06:36:31;;;;;;;8.80;4.70;;;5.20;99.90;;;;;;5016298;28;20234;-60
2023/01/04 06:38:58;;;;;;;8.30;4.90;;;5.20;99.90;;;;;;5026346;28;20262;-61
2023/01/04 06:41:24;;;;;;;10.33;5.07;;;5.20;99.90;;;;;;5021072;28;20791;-60
2023/01/04 06:43:49;;;;;;;8.63;4.47;;;5.20;99.90;;;;;;5027442;28;20521;-60
2023/01/04 06:46:15;;;;;;;5.67;4.30;;;5.20;99.90;;;;;;5016727;28;20310;-60
2023/01/04 06:48:41;;;;;;;11.10;5.10;;;5.20;99.90;;;;;;5023907;28;20719;-60
2023/01/04 06:51:07;;;;;;;6.73;4.57;;;5.20;99.90;;;;;;5016611;28;20903;-60
2023/01/04 06:53:32;;;;;;;8.00;4.10;;;5.10;99.90;;;;;;5024994;28;20179;-60
2023/01/04 06:55:58;;;;;;;5.97;4.33;;;5.10;99.90;;;;;;5028397;28;20203;-60
2023/01/04 06:58:23;;;;;;;9.53;5.37;;;5.10;99.90;;;;;;5029147;28;20180;-60
2023/01/04 07:00:53;;;;;;;6.80;4.63;;;5.10;99.90;;;;;;5013320;28;20182;-61
2023/01/04 07:03:19;;;;;;;10.40;4.30;;;5.20;99.90;;;;;;5028455;28;20244;-61
2023/01/04 07:05:45;;;;;;;7.20;5.13;;;5.20;99.90;;;;;;5023624;28;20434;-60
2023/01/04 07:08:14;;;;;;;7.83;4.83;;;5.20;99.90;;;;;;5023987;28;20811;-60
2023/01/04 07:10:40;;;;;;;10.53;4.70;;;5.20;99.90;;;;;;5022174;28;20210;-60
2023/01/04 07:13:06;;;;;;;8.47;4.50;;;5.20;99.90;;;;;;5028545;28;20476;-60
2023/01/04 07:15:32;;;;;;;6.30;4.53;;;5.20;99.90;;;;;;5027461;28;20422;-60
2023/01/04 07:17:57;;;;;;;8.30;5.30;;;5.20;99.90;;;;;;5042609;28;20528;-60
2023/01/04 07:20:23;;;;;;;11.07;5.93;;;5.20;99.90;;;;;;5027868;28;20444;-60
2023/01/04 07:22:49;;;;;;;11.53;6.10;;;5.20;99.90;;;;;;5023581;28;20278;-60
2023/01/04 07:25:14;;;;;;;12.70;6.23;;;5.20;99.90;;;;;;5027166;28;20186;-60
2023/01/04 07:27:40;;;;;;;8.57;5.50;;;5.20;99.90;;;;;;5025709;28;20207;-60
2023/01/04 07:30:06;;;;;;;10.83;5.93;;;5.20;99.90;;;;;;5020756;28;20222;-60
2023/01/04 07:32:31;;;;;;;8.90;5.30;;;5.20;99.90;;;;;;5026004;28;20194;-60
2023/01/04 07:34:57;;;;;;;7.33;4.60;;;5.20;99.90;;;;;;5019811;28;20918;-60
2023/01/04 07:37:23;;;;;;;10.30;5.27;;;5.20;99.90;;;;;;5019243;28;20762;-60
2023/01/04 07:39:48;;;;;;;9.73;5.53;;;5.20;99.90;;;;;;5038469;28;20180;-60
2023/01/04 07:42:14;;;;;;;7.97;4.97;;;5.30;99.90;;;;;;5021599;28;20232;-60
2023/01/04 07:44:40;;;;;;;6.90;4.67;;;5.30;99.90;;;;;;5021425;28;20168;-61
2023/01/04 07:47:05;;;;;;;10.57;5.47;;;5.30;99.90;;;;;;5025245;28;20211;-60
2023/01/04 07:49:31;;;;;;;11.10;4.90;;;5.30;99.90;;;;;;5024233;28;20183;-60
2023/01/04 07:51:57;;;;;;;8.57;5.40;;;5.30;99.90;;;;;;5032137;28;20203;-61
2023/01/04 07:54:23;;;;;;;8.40;5.00;;;5.30;99.90;;;;;;5028433;28;20434;-60
2023/01/04 07:56:49;;;;;;;6.73;4.67;;;5.30;99.90;;;;;;5025664;28;20222;-60
2023/01/04 07:59:17;;;;;;;7.80;4.83;;;5.40;99.90;;;;;;5017588;28;20183;-60
2023/01/04 08:01:43;;;;;;;9.13;5.43;;;5.40;99.90;;;;;;5012785;28;20798;-60
2023/01/04 08:04:11;;;;;;;9.00;5.30;;;5.40;99.90;;;;;;5029520;28;20545;-61
2023/01/04 08:06:38;;;;;;;7.90;5.07;;;5.40;99.90;;;;;;5014443;28;20455;-60
2023/01/04 08:09:05;;;;;;;8.40;5.40;;;5.40;99.90;;;;;;5031415;28;20434;-60
2023/01/04 08:11:32;;;;;;;8.27;4.40;;;5.40;99.90;;;;;;5024977;28;20528;-61
2023/01/04 08:13:58;;;;;;;8.20;5.10;;;5.40;99.90;;;;;;5020735;28;20498;-60
2023/01/04 08:16:26;;;;;;;9.30;5.57;;;5.50;99.90;;;;;;5014777;28;20537;-61
2023/01/04 08:18:54;;;;;;;6.47;4.00;;;5.50;99.90;;;;;;5021285;28;20204;-60
2023/01/04 08:21:21;;;;;;;10.90;4.50;;;5.50;99.90;;;;;;5032394;28;20495;-60
2023/01/04 08:23:46;;;;;;;6.90;4.00;;;5.50;99.90;;;;;;5031903;28;20406;-60
2023/01/04 08:26:14;;;;;;;6.30;4.00;;;5.50;99.90;;;;;;5029437;28;20465;-60
2023/01/04 08:28:40;;;;;;;6.73;4.20;;;5.50;99.90;;;;;;5027801;28;20259;-60
2023/01/04 08:31:12;;;;;;;6.10;3.60;;;5.50;99.90;;;;;;5028718;28;21068;-60
2023/01/04 08:33:39;;;;;;;9.00;4.17;;;5.60;99.90;;;;;;5032475;28;20446;-60
2023/01/04 08:36:10;;;;;;;5.77;3.63;;;5.60;99.90;;;;;;5011336;28;20979;-60
2023/01/04 08:38:35;;;;;;;4.40;3.57;;;5.60;99.90;;;;;;5018262;28;20435;-60
2023/01/04 08:41:01;;;;;;;5.20;3.57;;;5.60;99.90;;;;;;5020900;28;20442;-60
2023/01/04 08:43:27;;;;;;;6.73;3.23;;;5.60;99.90;;;;;;5031402;28;20176;-61
2023/01/04 08:45:52;;;;;;;4.53;3.00;;;5.60;99.90;;;;;;5020867;28;20445;-60
2023/01/04 08:48:18;;;;;;;4.07;3.30;;;5.60;99.90;;;;;;5013960;28;20279;-60
2023/01/04 08:50:43;;;;;;;3.40;2.93;;;5.60;99.90;;;;;;5015228;28;20215;-60
2023/01/04 08:53:09;;;;;;;5.00;3.50;;;5.70;99.90;;;;;;5031167;28;20653;-60
2023/01/04 08:55:36;;;;;;;5.30;3.30;;;5.70;99.90;;;;;;5029870;28;20170;-60
2023/01/04 08:58:02;;;;;;;3.93;3.20;;;5.70;99.90;;;;;;5019505;28;20437;-60
2023/01/04 09:00:28;;;;;;;4.30;3.30;;;5.70;99.90;;;;;;5011765;28;20783;-60
2023/01/04 09:02:54;;;;;;;4.77;3.53;;;5.70;99.90;;;;;;5013763;28;20484;-60
2023/01/04 09:05:20;;;;;;;3.80;3.30;;;5.70;99.90;;;;;;5028319;28;21088;-60
2023/01/04 09:07:45;;;;;;;6.27;3.53;;;5.70;99.90;;;;;;5026013;28;20210;-60
2023/01/04 09:10:11;;;;;;;6.17;3.60;;;5.70;99.90;;;;;;5017442;28;20467;-60
2023/01/04 09:12:37;;;;;;;6.87;4.43;;;5.80;99.90;;;;;;5027309;28;20199;-60
2023/01/04 09:15:03;;;;;;;4.67;3.27;;;5.80;99.90;;;;;;5012927;28;20229;-61
2023/01/04 09:17:29;;;;;;;4.50;3.40;;;5.80;99.90;;;;;;5026512;28;20438;-60
2023/01/04 09:19:54;;;;;;;7.47;3.30;;;5.90;99.90;;;;;;5034407;28;20434;-61
2023/01/04 09:22:20;;;;;;;4.50;2.90;;;5.90;99.90;;;;;;5027988;28;20203;-61
2023/01/04 09:24:46;;;;;;;4.90;3.50;;;5.90;99.90;;;;;;5028443;28;20640;-61
2023/01/04 09:27:11;;;;;;;6.03;3.60;;;5.90;99.90;;;;;;5031594;28;20212;-61
2023/01/04 09:29:37;;;;;;;2.93;2.63;;;6.00;99.90;;;;;;5029370;28;20226;-61
2023/01/04 09:32:03;;;;;;;5.70;2.90;;;6.00;99.90;;;;;;5022652;28;20206;-59
2023/01/04 09:34:28;;;;;;;4.53;3.50;;;6.00;99.90;;;;;;5022046;28;20186;-59
2023/01/04 09:36:54;;;;;;;6.90;3.60;;;6.00;99.90;;;;;;5017060;28;20211;-61
2023/01/04 09:39:20;;;;;;;7.50;3.60;;;6.00;99.90;;;;;;5019662;28;20183;-59
2023/01/04 09:41:54;;;;;;;4.23;3.23;;;6.00;99.90;;;;;;5033250;28;20179;-61
2023/01/04 09:44:44;;;;;;;8.83;4.50;;;6.00;99.90;;;;;;5017839;28;20458;-59
2023/01/04 09:47:42;;;;;;;6.30;3.53;;;6.00;99.90;;;;;;5018356;28;20497;-59
2023/01/04 09:50:35;;;;;;;5.80;4.07;;;6.00;99.90;;;;;;5016345;28;20998;-61
2023/01/04 09:53:18;;;;;;;6.17;4.43;;;6.00;99.90;;;;;;5015480;28;20785;-60
2023/01/04 09:55:54;;;;;;;5.87;3.90;;;6.10;99.90;;;;;;5017401;28;20481;-59
2023/01/04 09:58:30;;;;;;;5.77;3.27;;;6.00;99.90;;;;;;5021294;28;20431;-58
2023/01/04 10:01:16;;;;;;;6.70;3.33;;;6.10;99.90;;;;;;5015866;28;20446;-58
2023/01/04 10:03:57;;;;;;;4.37;3.17;;;6.00;99.90;;;;;;5016047;28;20426;-58
2023/01/04 10:06:23;;;;;;;4.93;3.37;;;6.00;99.90;;;;;;5019317;28;20996;-58
2023/01/04 10:08:48;;;;;;;4.43;3.37;;;6.10;99.90;;;;;;5019519;28;20552;-59
2023/01/04 10:12:00;;;;;;;7.53;3.97;;;6.10;99.90;;;;;;5020928;28;20200;-58
2023/01/04 10:14:54;;;;;;;5.27;3.60;;;6.10;99.90;;;;;;4994077;28;20184;-58
2023/01/04 10:17:36;;;;;;;6.57;3.87;;;6.10;99.90;;;;;;5015407;28;20967;-55
2023/01/04 10:20:20;;;;;;;7.10;3.00;;;6.10;99.90;;;;;;5021725;28;20438;-55
2023/01/04 10:22:52;;;;;;;4.67;3.23;;;6.10;99.90;;;;;;5019853;28;21177;-56
2023/01/04 10:25:37;;;;;;;3.83;2.93;;;6.10;99.90;;;;;;5020741;28;20459;-56
2023/01/04 10:28:39;;;;;;;5.50;3.40;;;6.10;99.90;;;;;;5022862;28;20528;-54
2023/01/04 10:31:19;;;;;;;5.30;3.30;;;6.10;99.90;;;;;;5017624;28;21009;-55
2023/01/04 10:33:49;;;;;;;6.50;3.67;;;6.20;99.90;;;;;;5021888;28;20535;-55
2023/01/04 10:36:25;;;;;;;4.57;3.60;;;6.20;99.90;;;;;;5022467;28;20459;-55
2023/01/04 10:39:11;;;;;;;8.00;3.80;;;6.20;99.90;;;;;;5019997;28;20435;-55
2023/01/04 10:41:42;;;;;;;8.83;4.50;;;6.20;99.90;;;;;;5018257;28;20430;-56
2023/01/04 10:44:23;;;;;;;7.27;3.70;;;6.30;99.90;;;;;;5017564;28;20539;-56
2023/01/04 10:47:29;;;;;;;6.23;3.43;;;6.30;99.90;;;;;;5015977;28;20904;-56
2023/01/04 10:50:03;;;;;;;8.70;4.10;;;6.30;99.90;;;;;;4958868;28;20535;-56
2023/01/04 10:52:43;;;;;;;6.33;3.67;;;6.30;99.90;;;;;;4962476;28;20456;-56
2023/01/04 10:55:17;;;;;;;11.70;4.40;;;6.30;99.90;;;;;;5002170;28;20422;-56
2023/01/04 10:57:49;;;;;;;5.37;3.87;;;6.40;99.90;;;;;;5021893;28;20447;-56
2023/01/04 11:00:24;;;;;;;6.07;4.03;;;6.40;99.90;;;;;;5018818;28;20431;-56
2023/01/04 11:03:01;;;;;;;8.67;4.33;;;6.40;99.90;;;;;;5022031;28;20441;-56
2023/01/04 11:05:38;;;;;;;4.83;3.50;;;6.40;99.90;;;;;;5021238;28;20935;-56
2023/01/04 11:08:19;;;;;;;10.07;4.57;;;6.40;99.90;;;;;;5018841;28;20508;-55
2023/01/04 11:11:14;;;;;;;6.63;4.00;;;6.40;99.90;;;;;;5021009;28;20466;-57
2023/01/04 11:13:40;;;;;;;7.80;3.80;;;6.50;99.90;;;;;;5026303;28;20426;-56
2023/01/04 11:16:07;;;;;;;10.57;5.10;;;6.50;99.90;;;;;;5019147;28;20950;-57
2023/01/04 11:18:36;;;;;;;6.87;3.60;;;6.60;99.90;;;;;;5021831;28;20229;-58
2023/01/04 11:21:07;;;;;;;5.37;3.70;;;6.60;99.90;;;;;;5022965;28;20450;-57
2023/01/04 11:23:32;;;;;;;7.90;4.90;;;6.60;99.90;;;;;;5019896;28;20426;-56
2023/01/04 11:26:05;;;;;;;6.70;4.20;;;6.60;99.90;;;;;;5021595;28;21021;-56
2023/01/04 11:28:52;;;;;;;5.47;3.90;;;6.60;99.90;;;;;;5022021;28;20180;-56
2023/01/04 11:31:31;;;;;;;6.57;4.37;;;6.60;99.90;;;;;;5024773;28;20889;-56
2023/01/04 11:33:58;;;;;;;7.03;4.60;;;6.50;99.90;;;;;;5019058;28;20430;-56
2023/01/04 11:36:32;;;;;;;5.77;3.53;;;6.50;99.90;;;;;;5022888;28;20439;-56
2023/01/04 11:38:58;;;;;;;6.23;3.90;;;6.50;99.90;;;;;;5021728;28;20449;-56
2023/01/04 11:41:25;;;;;;;5.63;3.80;;;6.50;99.90;;;;;;5020475;28;20542;-56
2023/01/04 11:43:57;;;;;;;6.40;4.23;;;6.50;99.90;;;;;;5020486;28;20435;-56
2023/01/04 11:46:23;;;;;;;9.30;3.67;;;6.50;99.90;;;;;;5019968;28;20469;-56
2023/01/04 11:48:50;;;;;;;6.03;4.10;;;6.50;99.90;;;;;;5026737;28;21090;-56
2023/01/04 11:51:35;;;;;;;6.33;3.97;;;6.60;99.90;;;;;;5024453;28;20454;-56
2023/01/04 11:54:13;;;;;;;7.00;3.83;;;6.60;99.90;;;;;;5017690;28;20428;-56
2023/01/04 11:56:55;;;;;;;6.40;4.17;;;6.60;99.90;;;;;;5017201;28;20444;-56
2023/01/04 11:59:21;;;;;;;7.50;3.23;;;6.60;99.90;;;;;;5020109;28;20470;-56
2023/01/04 12:01:51;;;;;;;9.23;4.53;;;6.60;99.90;;;;;;5025145;28;20462;-57
2023/01/04 12:04:27;;;;;;;2.60;2.40;;;6.60;99.90;;;;;;5018179;28;20258;-56
2023/01/04 12:06:55;;;;;;;5.67;3.33;;;6.60;99.90;;;;;;5021576;28;20529;-56
2023/01/04 12:09:21;;;;;;;6.17;3.37;;;6.60;99.90;;;;;;5018436;28;20524;-59
2023/01/04 12:11:54;;;;;;;3.23;2.63;;;6.60;99.90;;;;;;5017900;28;21043;-61
2023/01/04 12:14:35;;;;;;;3.57;2.80;;;6.70;99.90;;;;;;5016072;28;20441;-60
2023/01/04 12:17:06;;;;;;;4.17;2.60;;;6.70;99.90;;;;;;5016405;28;20878;-60
2023/01/04 12:19:34;;;;;;;5.80;3.03;;;6.70;99.90;;;;;;5020503;28;20935;-60
2023/01/04 12:22:02;;;;;;;4.20;2.23;;;6.70;99.90;;;;;;5019145;28;20479;-60
2023/01/04 12:24:33;;;;;;;4.30;2.43;;;6.70;99.90;;;;;;5016320;28;20466;-59
2023/01/04 12:27:00;;;;;;;5.20;2.73;;;6.80;99.90;;;;;;5015537;28;20504;-60
2023/01/04 12:29:41;;;;;;;3.97;2.60;;;6.80;99.90;;;;;;5014579;28;21033;-59
2023/01/04 12:32:07;;;;;;;4.70;2.50;;;6.80;99.90;;;;;;5014714;28;21350;-58
2023/01/04 12:34:33;;;;;;;7.90;3.00;;;6.80;99.90;;;;;;5025718;28;20426;-61
2023/01/04 12:37:02;;;;;;;5.17;2.60;;;6.90;99.90;;;;;;5036927;28;20203;-60
2023/01/04 12:39:46;;;;;;;4.80;3.20;;;6.90;99.90;;;;;;5023425;28;20427;-59
2023/01/04 12:42:16;;;;;;;3.07;2.60;;;6.90;99.90;;;;;;5020575;28;20801;-60
2023/01/04 12:44:45;;;;;;;3.83;2.80;;;6.90;99.90;;;;;;5017509;28;20437;-59
2023/01/04 12:50:07;;;;;;;3.90;2.90;;;7.00;99.90;;;;;;5020748;28;20894;-61
2023/01/04 12:52:34;;;;;;;8.57;2.80;;;7.00;99.90;;;;;;5019977;28;20802;-59
2023/01/04 12:55:02;;;;;;;4.07;3.00;;;7.00;99.90;;;;;;5021297;28;20858;-60
2023/01/04 12:57:32;;;;;;;6.17;2.90;;;7.00;99.90;;;;;;5020772;28;20485;-60
2023/01/04 13:00:10;;;;;;;2.90;2.60;;;7.00;99.90;;;;;;5019959;28;20962;-60
2023/01/04 13:02:46;;;;;;;4.53;2.57;;;7.00;99.90;;;;;;5018522;28;20530;-59
2023/01/04 13:05:18;;;;;;;3.53;2.70;;;7.00;99.90;;;;;;5020632;28;20863;-60
2023/01/04 13:07:43;;;;;;;2.53;2.30;;;7.00;99.90;;;;;;5016285;28;20451;-61
2023/01/04 13:10:25;;;;;;;4.87;3.43;;;7.10;99.90;;;;;;5018650;28;20462;-61
2023/01/04 13:13:13;;;;;;;3.93;2.50;;;7.10;99.90;;;;;;5020737;28;20171;-61
2023/01/04 13:16:02;;;;;;;3.83;3.00;;;7.10;99.90;;;;;;5014438;28;20505;-61
2023/01/04 13:18:49;;;;;;;4.17;2.87;;;7.10;99.90;;;;;;5015877;28;20423;-60
2023/01/04 13:21:39;;;;;;;4.90;2.87;;;7.20;99.90;;;;;;5014775;28;20461;-60
2023/01/04 13:24:16;;;;;;;4.80;2.80;;;7.20;99.90;;;;;;5012149;28;20441;-62
2023/01/04 13:26:47;;;;;;;4.00;2.83;;;7.20;99.90;;;;;;5018324;28;20535;-61
2023/01/04 13:29:18;;;;;;;4.07;2.90;;;7.20;99.90;;;;;;5021675;28;21635;-62
2023/01/04 13:31:48;;;;;;;2.47;2.27;;;7.20;99.90;;;;;;5019557;28;20458;-60
2023/01/04 13:34:26;;;;;;;5.67;2.97;;;7.30;99.90;;;;;;5015827;28;21003;-61
2023/01/04 13:37:00;;;;;;;4.40;2.87;;;7.30;99.90;;;;;;5023978;28;20449;-61
2023/01/04 13:39:26;;;;;;;3.77;2.83;;;7.30;99.90;;;;;;5018227;28;20437;-61
2023/01/04 13:41:53;;;;;;;3.73;2.60;;;7.40;99.90;;;;;;5012768;28;21190;-60
2023/01/04 13:44:47;;;;;;;3.30;2.60;;;7.40;99.90;;;;;;5017664;28;20517;-60
2023/01/04 13:47:12;;;;;;;4.40;2.23;;;7.40;99.90;;;;;;5015665;28;20461;-61
2023/01/04 13:49:39;;;;;;;6.17;2.90;;;7.40;99.90;;;;;;5020696;28;20485;-60
2023/01/04 13:52:22;;;;;;;6.50;2.50;;;7.50;99.90;;;;;;5021870;28;20214;-61
2023/01/04 13:54:48;;;;;;;10.13;2.30;;;7.50;99.90;;;;;;5018422;28;20429;-62
2023/01/04 13:57:20;;;;;;;4.63;1.93;;;7.50;99.90;;;;;;5017273;28;20443;-60